Tuesday, April 24, 2018, 4:34 AM EDT
Back to Local

KPNE, N.e. Philadelphia Airport

Location: Philadelphia, PA, United States Lat: 40.083
Local Time: 4:34 AM EDT ( 8:34 GMT) Lon: -75.017
Time Zone: US/Eastern Elev: 121 ft

Show me the last for .
Show Decoded

2018-04-24 03:54 METAR KPNE 240754Z AUTO 00000KT 10SM CLR 06/M01 A3040 RMK AO2 SLP293 T00611006 =
2018-04-24 02:54 METAR KPNE 240654Z AUTO 00000KT 10SM CLR 07/M01 A3040 RMK AO2 SLP294 T00721006 =
2018-04-24 01:54 METAR KPNE 240554Z AUTO 00000KT 10SM CLR 08/M01 A3040 RMK AO2 SLP295 T00831011
                 10178 20078 58011 =
2018-04-24 00:54 METAR KPNE 240454Z AUTO 13004KT 10SM CLR 10/M02 A3042 RMK AO2 SLP302 T01001017
                 402280039 =
2018-04-23 23:54 METAR KPNE 240354Z AUTO 13003KT 10SM CLR 11/M01 A3043 RMK AO2 SLP303 T01061011 =
2018-04-23 22:54 METAR KPNE 240254Z AUTO 00000KT 10SM CLR 13/M04 A3044 RMK AO2 SLP306 T01331039
                 50010 =
2018-04-23 21:54 METAR KPNE 240154Z 22008KT 10SM CLR 14/M03 A3045 RMK AO2 SLP310 T01441028 =
2018-04-23 20:54 METAR KPNE 240054Z 16006KT 10SM CLR 16/M01 A3043 RMK AO2 SLP304 T01611011 =
2018-04-23 19:54 METAR KPNE 232354Z VRB05KT 10SM CLR 18/M04 A3041 RMK AO2 SLP296 T01781044 10228
                 20178 53006 =
2018-04-23 18:54 METAR KPNE 232254Z 24009KT 10SM CLR 19/M04 A3039 RMK AO2 SLP290 T01891039 =
2018-04-23 17:54 METAR KPNE 232154Z 20011KT 10SM CLR 21/M01 A3039 RMK AO2 SLP291 T02061011 =
2018-04-23 16:54 METAR KPNE 232054Z VRB05KT 10SM CLR 22/00 A3039 RMK AO2 SLP290 T02170000 56019 =
2018-04-23 15:54 METAR KPNE 231954Z 21006KT 10SM CLR 22/M01 A3040 RMK AO2 SLP295 T02221006 =
2018-04-23 14:54 METAR KPNE 231854Z 09007KT 10SM CLR 22/M01 A3043 RMK AO2 SLP302 T02171006 =
2018-04-23 13:54 METAR KPNE 231754Z 00000KT 10SM CLR 22/M03 A3044 RMK AO2 SLP309 T02171028 10217
                 20111 56012 =
2018-04-23 12:54 METAR KPNE 231654Z VRB05KT 10SM CLR 21/01 A3045 RMK AO2 SLP311 T02060006 =
2018-04-23 11:54 METAR KPNE 231554Z VRB03KT 10SM CLR 19/01 A3047 RMK AO2 SLP317 T01890006 =
2018-04-23 10:54 METAR KPNE 231454Z VRB05KT 10SM CLR 17/01 A3048 RMK AO2 SLP321 T01720006 50001 =
2018-04-23 09:54 METAR KPNE 231354Z 09006KT 10SM CLR 16/02 A3048 RMK AO2 SLP321 T01610017 =
2018-04-23 08:54 METAR KPNE 231254Z 09004KT 10SM CLR 14/02 A3049 RMK AO2 SLP324 T01390022 =
2018-04-23 07:54 METAR KPNE 231154Z 00000KT 10SM CLR 11/03 A3048 RMK AO2 SLP320 T01110033 10111
                 20039 53012 =
2018-04-23 06:54 METAR KPNE 231054Z 00000KT 10SM CLR 07/01 A3046 RMK AO2 SLP314 T00670011 =
2018-04-23 05:54 METAR KPNE 230954Z 36003KT 10SM CLR 06/01 A3044 RMK AO2 SLP307 T00560011 =
2018-04-23 04:54 METAR KPNE 230854Z 03004KT 10SM CLR 07/01 A3044 RMK AO2 SLP307 T00670011 53009 =

Support USWX by starting your Amazon purchase here.